sensor_id;sensor_type;location;lat;lon;timestamp;temperature;humidity
45283;DHT22;31023;44.994;1.796;2023-05-16T00:00:05;12.90;88.80
45283;DHT22;31023;44.994;1.796;2023-05-16T00:02:33;12.90;88.90
45283;DHT22;31023;44.994;1.796;2023-05-16T00:05:00;12.80;89.30
45283;DHT22;31023;44.994;1.796;2023-05-16T00:07:26;12.70;89.70
45283;DHT22;31023;44.994;1.796;2023-05-16T00:09:51;12.80;89.80
45283;DHT22;31023;44.994;1.796;2023-05-16T00:12:17;12.80;89.60
45283;DHT22;31023;44.994;1.796;2023-05-16T00:14:44;12.80;89.40
45283;DHT22;31023;44.994;1.796;2023-05-16T00:17:09;12.80;90.20
45283;DHT22;31023;44.994;1.796;2023-05-16T00:19:39;12.80;90.00
45283;DHT22;31023;44.994;1.796;2023-05-16T00:22:06;12.80;89.80
45283;DHT22;31023;44.994;1.796;2023-05-16T00:24:33;12.80;89.70
45283;DHT22;31023;44.994;1.796;2023-05-16T00:26:58;12.90;89.30
45283;DHT22;31023;44.994;1.796;2023-05-16T00:29:24;12.90;89.30
45283;DHT22;31023;44.994;1.796;2023-05-16T00:31:50;12.90;88.60
45283;DHT22;31023;44.994;1.796;2023-05-16T00:34:16;12.80;88.90
45283;DHT22;31023;44.994;1.796;2023-05-16T00:36:42;12.80;89.30
45283;DHT22;31023;44.994;1.796;2023-05-16T00:39:08;12.70;89.40
45283;DHT22;31023;44.994;1.796;2023-05-16T00:41:35;12.80;89.30
45283;DHT22;31023;44.994;1.796;2023-05-16T00:44:01;12.80;89.00
45283;DHT22;31023;44.994;1.796;2023-05-16T00:46:27;12.90;88.90
45283;DHT22;31023;44.994;1.796;2023-05-16T00:48:53;12.80;89.30
45283;DHT22;31023;44.994;1.796;2023-05-16T00:51:19;12.70;89.20
45283;DHT22;31023;44.994;1.796;2023-05-16T00:53:44;12.70;89.90
45283;DHT22;31023;44.994;1.796;2023-05-16T00:56:10;12.70;89.50
45283;DHT22;31023;44.994;1.796;2023-05-16T00:58:36;12.70;90.10
45283;DHT22;31023;44.994;1.796;2023-05-16T01:01:02;12.50;90.30
45283;DHT22;31023;44.994;1.796;2023-05-16T01:03:29;12.40;90.60
45283;DHT22;31023;44.994;1.796;2023-05-16T01:05:56;12.30;90.70
45283;DHT22;31023;44.994;1.796;2023-05-16T01:08:22;12.20;90.80
45283;DHT22;31023;44.994;1.796;2023-05-16T01:11:09;12.20;90.90
45283;DHT22;31023;44.994;1.796;2023-05-16T01:13:52;12.10;91.10
45283;DHT22;31023;44.994;1.796;2023-05-16T01:16:41;12.10;91.20
45283;DHT22;31023;44.994;1.796;2023-05-16T01:22:29;12.20;91.10
45283;DHT22;31023;44.994;1.796;2023-05-16T01:25:16;12.20;91.10
45283;DHT22;31023;44.994;1.796;2023-05-16T01:27:44;12.20;91.20
45283;DHT22;31023;44.994;1.796;2023-05-16T01:30:16;12.00;91.60
45283;DHT22;31023;44.994;1.796;2023-05-16T01:32:42;12.10;91.50
45283;DHT22;31023;44.994;1.796;2023-05-16T01:35:09;12.10;91.60
45283;DHT22;31023;44.994;1.796;2023-05-16T01:37:41;12.10;91.50
45283;DHT22;31023;44.994;1.796;2023-05-16T01:40:45;12.20;91.50
45283;DHT22;31023;44.994;1.796;2023-05-16T01:43:10;12.10;91.80
45283;DHT22;31023;44.994;1.796;2023-05-16T01:45:40;12.10;91.90
45283;DHT22;31023;44.994;1.796;2023-05-16T01:48:19;12.00;91.90
45283;DHT22;31023;44.994;1.796;2023-05-16T01:50:51;11.90;92.20
45283;DHT22;31023;44.994;1.796;2023-05-16T01:53:22;11.90;92.50
45283;DHT22;31023;44.994;1.796;2023-05-16T01:55:56;11.80;92.80
45283;DHT22;31023;44.994;1.796;2023-05-16T01:58:25;11.80;92.90
45283;DHT22;31023;44.994;1.796;2023-05-16T02:00:53;11.80;92.90
45283;DHT22;31023;44.994;1.796;2023-05-16T02:03:19;11.80;93.00
45283;DHT22;31023;44.994;1.796;2023-05-16T02:05:44;11.70;93.00
45283;DHT22;31023;44.994;1.796;2023-05-16T02:08:12;11.70;93.10
45283;DHT22;31023;44.994;1.796;2023-05-16T02:10:38;11.80;93.10
45283;DHT22;31023;44.994;1.796;2023-05-16T02:13:05;11.80;93.10
45283;DHT22;31023;44.994;1.796;2023-05-16T02:15:31;11.90;93.10
45283;DHT22;31023;44.994;1.796;2023-05-16T02:17:57;12.00;93.00
45283;DHT22;31023;44.994;1.796;2023-05-16T02:20:23;12.10;93.00
45283;DHT22;31023;44.994;1.796;2023-05-16T02:22:48;12.10;93.10
45283;DHT22;31023;44.994;1.796;2023-05-16T02:25:14;12.10;93.00
45283;DHT22;31023;44.994;1.796;2023-05-16T02:27:40;12.10;93.10
45283;DHT22;31023;44.994;1.796;2023-05-16T02:30:08;12.10;93.10
45283;DHT22;31023;44.994;1.796;2023-05-16T02:32:34;12.00;93.30
45283;DHT22;31023;44.994;1.796;2023-05-16T02:35:00;12.00;93.20
45283;DHT22;31023;44.994;1.796;2023-05-16T02:37:26;12.10;93.10
45283;DHT22;31023;44.994;1.796;2023-05-16T02:39:51;12.00;93.20
45283;DHT22;31023;44.994;1.796;2023-05-16T02:42:17;12.00;93.30
45283;DHT22;31023;44.994;1.796;2023-05-16T02:44:43;12.10;93.30
45283;DHT22;31023;44.994;1.796;2023-05-16T02:47:09;12.20;93.20
45283;DHT22;31023;44.994;1.796;2023-05-16T02:49:34;12.10;93.20
45283;DHT22;31023;44.994;1.796;2023-05-16T02:52:00;12.10;93.50
45283;DHT22;31023;44.994;1.796;2023-05-16T02:54:26;12.00;93.50
45283;DHT22;31023;44.994;1.796;2023-05-16T02:56:51;12.10;93.60
45283;DHT22;31023;44.994;1.796;2023-05-16T02:59:17;12.00;93.90
45283;DHT22;31023;44.994;1.796;2023-05-16T03:01:43;12.00;93.50
45283;DHT22;31023;44.994;1.796;2023-05-16T03:04:09;11.90;93.50
45283;DHT22;31023;44.994;1.796;2023-05-16T03:06:34;12.00;93.40
45283;DHT22;31023;44.994;1.796;2023-05-16T03:09:00;12.00;92.80
45283;DHT22;31023;44.994;1.796;2023-05-16T03:11:26;12.00;92.90
45283;DHT22;31023;44.994;1.796;2023-05-16T03:13:53;12.00;92.90
45283;DHT22;31023;44.994;1.796;2023-05-16T03:16:19;12.00;92.80
45283;DHT22;31023;44.994;1.796;2023-05-16T03:18:45;12.00;92.80
45283;DHT22;31023;44.994;1.796;2023-05-16T03:21:10;12.00;92.40
45283;DHT22;31023;44.994;1.796;2023-05-16T03:23:36;12.00;92.60
45283;DHT22;31023;44.994;1.796;2023-05-16T03:26:02;12.00;92.60
45283;DHT22;31023;44.994;1.796;2023-05-16T03:28:27;12.00;92.50
45283;DHT22;31023;44.994;1.796;2023-05-16T03:30:53;12.00;92.80
45283;DHT22;31023;44.994;1.796;2023-05-16T03:33:19;12.10;92.80
45283;DHT22;31023;44.994;1.796;2023-05-16T03:35:45;12.00;92.70
45283;DHT22;31023;44.994;1.796;2023-05-16T03:38:11;11.90;92.80
45283;DHT22;31023;44.994;1.796;2023-05-16T03:40:37;12.00;92.70
45283;DHT22;31023;44.994;1.796;2023-05-16T03:43:03;12.00;92.60
45283;DHT22;31023;44.994;1.796;2023-05-16T03:45:31;11.90;92.70
45283;DHT22;31023;44.994;1.796;2023-05-16T03:47:57;11.90;92.30
45283;DHT22;31023;44.994;1.796;2023-05-16T03:50:23;11.90;92.20
45283;DHT22;31023;44.994;1.796;2023-05-16T03:52:48;11.90;92.00
45283;DHT22;31023;44.994;1.796;2023-05-16T03:55:14;11.90;91.90
45283;DHT22;31023;44.994;1.796;2023-05-16T03:57:41;12.00;91.70
45283;DHT22;31023;44.994;1.796;2023-05-16T04:00:08;12.00;91.70
45283;DHT22;31023;44.994;1.796;2023-05-16T04:02:35;12.00;91.60
45283;DHT22;31023;44.994;1.796;2023-05-16T04:05:01;11.90;91.10
45283;DHT22;31023;44.994;1.796;2023-05-16T04:07:27;12.00;91.40
45283;DHT22;31023;44.994;1.796;2023-05-16T04:09:54;12.00;91.50
45283;DHT22;31023;44.994;1.796;2023-05-16T04:12:20;12.00;91.80
45283;DHT22;31023;44.994;1.796;2023-05-16T04:14:47;11.90;92.00
45283;DHT22;31023;44.994;1.796;2023-05-16T04:17:13;11.80;92.50
45283;DHT22;31023;44.994;1.796;2023-05-16T04:19:39;11.90;92.50
45283;DHT22;31023;44.994;1.796;2023-05-16T04:22:05;11.90;92.60
45283;DHT22;31023;44.994;1.796;2023-05-16T04:24:32;11.90;92.70
45283;DHT22;31023;44.994;1.796;2023-05-16T04:26:57;11.90;92.80
45283;DHT22;31023;44.994;1.796;2023-05-16T04:29:23;11.80;92.80
45283;DHT22;31023;44.994;1.796;2023-05-16T04:31:50;11.80;92.90
45283;DHT22;31023;44.994;1.796;2023-05-16T04:34:15;11.80;92.90
45283;DHT22;31023;44.994;1.796;2023-05-16T04:36:41;12.00;92.80
45283;DHT22;31023;44.994;1.796;2023-05-16T04:39:07;12.00;92.80
45283;DHT22;31023;44.994;1.796;2023-05-16T04:41:33;12.00;92.80
45283;DHT22;31023;44.994;1.796;2023-05-16T04:44:01;12.10;92.50
45283;DHT22;31023;44.994;1.796;2023-05-16T04:46:29;12.20;92.50
45283;DHT22;31023;44.994;1.796;2023-05-16T04:48:54;12.30;92.30
45283;DHT22;31023;44.994;1.796;2023-05-16T04:51:20;12.20;92.30
45283;DHT22;31023;44.994;1.796;2023-05-16T04:53:46;12.10;92.40
45283;DHT22;31023;44.994;1.796;2023-05-16T04:56:12;11.90;92.80
45283;DHT22;31023;44.994;1.796;2023-05-16T04:58:38;11.90;92.80
45283;DHT22;31023;44.994;1.796;2023-05-16T05:01:03;11.80;92.90
45283;DHT22;31023;44.994;1.796;2023-05-16T05:03:29;12.00;92.70
45283;DHT22;31023;44.994;1.796;2023-05-16T05:05:55;12.00;92.70
45283;DHT22;31023;44.994;1.796;2023-05-16T05:08:21;12.10;92.70
45283;DHT22;31023;44.994;1.796;2023-05-16T05:10:47;12.10;92.40
45283;DHT22;31023;44.994;1.796;2023-05-16T05:13:13;12.00;92.50
45283;DHT22;31023;44.994;1.796;2023-05-16T05:15:38;12.10;92.30
45283;DHT22;31023;44.994;1.796;2023-05-16T05:18:04;12.10;92.20
45283;DHT22;31023;44.994;1.796;2023-05-16T05:20:30;12.20;92.20
45283;DHT22;31023;44.994;1.796;2023-05-16T05:22:56;12.40;91.90
45283;DHT22;31023;44.994;1.796;2023-05-16T05:25:21;12.70;91.30
45283;DHT22;31023;44.994;1.796;2023-05-16T05:27:47;13.10;90.90
45283;DHT22;31023;44.994;1.796;2023-05-16T05:30:13;13.30;90.40
45283;DHT22;31023;44.994;1.796;2023-05-16T05:32:38;13.00;90.50
45283;DHT22;31023;44.994;1.796;2023-05-16T05:35:04;12.80;91.10
45283;DHT22;31023;44.994;1.796;2023-05-16T05:37:30;12.80;91.10
45283;DHT22;31023;44.994;1.796;2023-05-16T05:39:56;12.80;90.80
45283;DHT22;31023;44.994;1.796;2023-05-16T05:42:22;12.90;90.80
45283;DHT22;31023;44.994;1.796;2023-05-16T05:44:48;13.00;90.70
45283;DHT22;31023;44.994;1.796;2023-05-16T05:47:14;12.80;90.80
45283;DHT22;31023;44.994;1.796;2023-05-16T05:49:40;12.60;91.10
45283;DHT22;31023;44.994;1.796;2023-05-16T05:52:06;12.80;90.80
45283;DHT22;31023;44.994;1.796;2023-05-16T05:54:32;13.00;90.40
45283;DHT22;31023;44.994;1.796;2023-05-16T05:56:58;13.40;89.80
45283;DHT22;31023;44.994;1.796;2023-05-16T05:59:24;13.60;88.50
45283;DHT22;31023;44.994;1.796;2023-05-16T06:01:50;13.60;88.10
45283;DHT22;31023;44.994;1.796;2023-05-16T06:04:19;13.90;87.20
45283;DHT22;31023;44.994;1.796;2023-05-16T06:06:45;13.80;87.10
45283;DHT22;31023;44.994;1.796;2023-05-16T06:09:11;13.60;86.60
45283;DHT22;31023;44.994;1.796;2023-05-16T06:11:38;13.90;86.80
45283;DHT22;31023;44.994;1.796;2023-05-16T06:14:04;14.40;84.70
45283;DHT22;31023;44.994;1.796;2023-05-16T06:16:30;14.80;81.80
45283;DHT22;31023;44.994;1.796;2023-05-16T06:18:55;14.90;82.60
45283;DHT22;31023;44.994;1.796;2023-05-16T06:21:21;16.30;78.60
45283;DHT22;31023;44.994;1.796;2023-05-16T06:23:47;16.20;74.40
45283;DHT22;31023;44.994;1.796;2023-05-16T06:26:12;15.20;78.00
45283;DHT22;31023;44.994;1.796;2023-05-16T06:28:38;14.70;78.40
45283;DHT22;31023;44.994;1.796;2023-05-16T06:31:04;14.70;77.50
45283;DHT22;31023;44.994;1.796;2023-05-16T06:33:29;17.70;70.30
45283;DHT22;31023;44.994;1.796;2023-05-16T06:35:55;20.50;63.60
45283;DHT22;31023;44.994;1.796;2023-05-16T06:38:21;20.70;59.50
45283;DHT22;31023;44.994;1.796;2023-05-16T06:40:47;21.30;59.00
45283;DHT22;31023;44.994;1.796;2023-05-16T06:43:13;21.90;56.80
45283;DHT22;31023;44.994;1.796;2023-05-16T06:45:39;21.20;55.30
45283;DHT22;31023;44.994;1.796;2023-05-16T06:48:06;21.90;57.20
45283;DHT22;31023;44.994;1.796;2023-05-16T06:50:32;23.50;53.10
45283;DHT22;31023;44.994;1.796;2023-05-16T06:53:00;23.40;52.40
45283;DHT22;31023;44.994;1.796;2023-05-16T06:55:25;22.80;50.30
45283;DHT22;31023;44.994;1.796;2023-05-16T06:57:51;19.10;59.70
45283;DHT22;31023;44.994;1.796;2023-05-16T07:00:17;19.30;61.90
45283;DHT22;31023;44.994;1.796;2023-05-16T07:02:43;20.40;56.40
45283;DHT22;31023;44.994;1.796;2023-05-16T07:05:09;17.50;62.20
45283;DHT22;31023;44.994;1.796;2023-05-16T07:07:35;18.60;62.80
45283;DHT22;31023;44.994;1.796;2023-05-16T07:10:01;21.30;53.70
45283;DHT22;31023;44.994;1.796;2023-05-16T07:12:27;24.10;50.40
45283;DHT22;31023;44.994;1.796;2023-05-16T07:14:52;24.90;48.00
45283;DHT22;31023;44.994;1.796;2023-05-16T07:17:18;24.80;48.30
45283;DHT22;31023;44.994;1.796;2023-05-16T07:19:44;24.50;46.90
45283;DHT22;31023;44.994;1.796;2023-05-16T07:22:09;24.40;46.30
45283;DHT22;31023;44.994;1.796;2023-05-16T07:24:36;23.20;50.70
45283;DHT22;31023;44.994;1.796;2023-05-16T07:27:02;25.10;45.70
45283;DHT22;31023;44.994;1.796;2023-05-16T07:29:28;23.60;45.20
45283;DHT22;31023;44.994;1.796;2023-05-16T07:31:55;24.40;45.30
45283;DHT22;31023;44.994;1.796;2023-05-16T07:34:20;26.30;44.50
45283;DHT22;31023;44.994;1.796;2023-05-16T07:36:46;26.30;44.90
45283;DHT22;31023;44.994;1.796;2023-05-16T07:39:12;25.30;45.70
45283;DHT22;31023;44.994;1.796;2023-05-16T07:41:37;22.00;47.40
45283;DHT22;31023;44.994;1.796;2023-05-16T07:44:03;19.30;53.20
45283;DHT22;31023;44.994;1.796;2023-05-16T07:46:29;17.90;55.80
45283;DHT22;31023;44.994;1.796;2023-05-16T07:48:55;22.20;50.80
45283;DHT22;31023;44.994;1.796;2023-05-16T07:51:20;23.00;46.50
45283;DHT22;31023;44.994;1.796;2023-05-16T07:53:46;25.50;45.80
45283;DHT22;31023;44.994;1.796;2023-05-16T07:56:12;24.40;44.20
45283;DHT22;31023;44.994;1.796;2023-05-16T07:58:38;26.00;41.90
45283;DHT22;31023;44.994;1.796;2023-05-16T08:01:04;25.60;43.60
45283;DHT22;31023;44.994;1.796;2023-05-16T08:03:30;26.90;41.30
45283;DHT22;31023;44.994;1.796;2023-05-16T08:05:55;27.80;41.50
45283;DHT22;31023;44.994;1.796;2023-05-16T08:08:21;27.90;39.30
45283;DHT22;31023;44.994;1.796;2023-05-16T08:10:47;27.70;38.30
45283;DHT22;31023;44.994;1.796;2023-05-16T08:13:12;27.60;40.30
45283;DHT22;31023;44.994;1.796;2023-05-16T08:15:38;24.80;40.90
45283;DHT22;31023;44.994;1.796;2023-05-16T08:18:03;22.90;46.90
45283;DHT22;31023;44.994;1.796;2023-05-16T08:20:36;24.80;44.70
45283;DHT22;31023;44.994;1.796;2023-05-16T08:23:02;27.30;40.80
45283;DHT22;31023;44.994;1.796;2023-05-16T08:25:28;26.60;43.90
45283;DHT22;31023;44.994;1.796;2023-05-16T08:27:53;27.40;38.20
45283;DHT22;31023;44.994;1.796;2023-05-16T08:30:19;24.10;44.00
45283;DHT22;31023;44.994;1.796;2023-05-16T08:32:45;22.60;45.90
45283;DHT22;31023;44.994;1.796;2023-05-16T08:35:11;24.60;43.80
45283;DHT22;31023;44.994;1.796;2023-05-16T08:37:37;23.10;46.00
45283;DHT22;31023;44.994;1.796;2023-05-16T08:40:05;22.70;45.50
45283;DHT22;31023;44.994;1.796;2023-05-16T08:42:33;21.60;50.30
45283;DHT22;31023;44.994;1.796;2023-05-16T08:44:58;25.30;45.40
45283;DHT22;31023;44.994;1.796;2023-05-16T08:47:24;24.80;43.50
45283;DHT22;31023;44.994;1.796;2023-05-16T08:49:52;24.10;48.60
45283;DHT22;31023;44.994;1.796;2023-05-16T08:52:23;22.30;47.50
45283;DHT22;31023;44.994;1.796;2023-05-16T08:54:51;21.40;48.80
45283;DHT22;31023;44.994;1.796;2023-05-16T08:57:19;22.50;49.30
45283;DHT22;31023;44.994;1.796;2023-05-16T08:59:45;22.90;47.30
45283;DHT22;31023;44.994;1.796;2023-05-16T09:02:11;23.30;48.30
45283;DHT22;31023;44.994;1.796;2023-05-16T09:04:37;22.50;45.50
45283;DHT22;31023;44.994;1.796;2023-05-16T09:07:03;21.70;50.40
45283;DHT22;31023;44.994;1.796;2023-05-16T09:09:29;22.00;50.20
45283;DHT22;31023;44.994;1.796;2023-05-16T09:11:55;23.90;47.50
45283;DHT22;31023;44.994;1.796;2023-05-16T09:14:21;20.40;50.60
45283;DHT22;31023;44.994;1.796;2023-05-16T09:17:05;20.00;53.30
45283;DHT22;31023;44.994;1.796;2023-05-16T09:19:38;19.40;54.40
45283;DHT22;31023;44.994;1.796;2023-05-16T09:22:13;20.00;52.20
45283;DHT22;31023;44.994;1.796;2023-05-16T09:24:43;23.20;46.70
45283;DHT22;31023;44.994;1.796;2023-05-16T09:27:09;21.40;50.40
45283;DHT22;31023;44.994;1.796;2023-05-16T09:29:35;20.30;51.60
45283;DHT22;31023;44.994;1.796;2023-05-16T09:32:11;20.40;52.10
45283;DHT22;31023;44.994;1.796;2023-05-16T09:37:09;19.50;53.70
45283;DHT22;31023;44.994;1.796;2023-05-16T09:39:35;19.60;53.20
45283;DHT22;31023;44.994;1.796;2023-05-16T09:42:01;19.20;53.70
45283;DHT22;31023;44.994;1.796;2023-05-16T09:44:27;19.10;54.20
45283;DHT22;31023;44.994;1.796;2023-05-16T09:46:54;19.10;54.30
45283;DHT22;31023;44.994;1.796;2023-05-16T09:49:20;18.30;54.40
45283;DHT22;31023;44.994;1.796;2023-05-16T09:51:46;18.10;57.00
45283;DHT22;31023;44.994;1.796;2023-05-16T09:54:12;18.60;56.10
45283;DHT22;31023;44.994;1.796;2023-05-16T09:56:50;18.70;56.50
45283;DHT22;31023;44.994;1.796;2023-05-16T09:59:16;18.00;55.80
45283;DHT22;31023;44.994;1.796;2023-05-16T10:01:42;17.70;56.50
45283;DHT22;31023;44.994;1.796;2023-05-16T10:04:08;17.80;56.10
45283;DHT22;31023;44.994;1.796;2023-05-16T10:06:39;16.80;57.50
45283;DHT22;31023;44.994;1.796;2023-05-16T10:09:10;16.40;59.30
45283;DHT22;31023;44.994;1.796;2023-05-16T10:11:39;16.80;58.30
45283;DHT22;31023;44.994;1.796;2023-05-16T10:14:06;16.80;60.30
45283;DHT22;31023;44.994;1.796;2023-05-16T10:16:34;16.80;61.20
45283;DHT22;31023;44.994;1.796;2023-05-16T10:19:02;16.50;58.50
45283;DHT22;31023;44.994;1.796;2023-05-16T10:21:28;16.50;60.20
45283;DHT22;31023;44.994;1.796;2023-05-16T10:23:56;16.60;59.40
45283;DHT22;31023;44.994;1.796;2023-05-16T10:26:23;16.40;59.30
45283;DHT22;31023;44.994;1.796;2023-05-16T10:28:50;16.30;60.50
45283;DHT22;31023;44.994;1.796;2023-05-16T10:31:17;16.30;60.50
45283;DHT22;31023;44.994;1.796;2023-05-16T10:33:43;16.00;61.70
45283;DHT22;31023;44.994;1.796;2023-05-16T10:36:10;16.10;61.60
45283;DHT22;31023;44.994;1.796;2023-05-16T10:38:37;16.10;61.20
45283;DHT22;31023;44.994;1.796;2023-05-16T10:41:03;16.50;59.70
45283;DHT22;31023;44.994;1.796;2023-05-16T10:43:29;16.40;59.90
45283;DHT22;31023;44.994;1.796;2023-05-16T10:45:57;16.20;60.30
45283;DHT22;31023;44.994;1.796;2023-05-16T10:48:34;16.30;59.60
45283;DHT22;31023;44.994;1.796;2023-05-16T10:51:01;16.00;60.70
45283;DHT22;31023;44.994;1.796;2023-05-16T10:53:33;16.40;60.30
45283;DHT22;31023;44.994;1.796;2023-05-16T11:01:16;17.60;57.20
45283;DHT22;31023;44.994;1.796;2023-05-16T11:11:52;16.20;60.40
45283;DHT22;31023;44.994;1.796;2023-05-16T11:16:48;18.50;56.90
45283;DHT22;31023;44.994;1.796;2023-05-16T11:19:31;18.70;55.20
45283;DHT22;31023;44.994;1.796;2023-05-16T11:24:33;16.70;57.20
45283;DHT22;31023;44.994;1.796;2023-05-16T11:27:01;16.90;58.00
45283;DHT22;31023;44.994;1.796;2023-05-16T11:29:30;16.60;59.00
45283;DHT22;31023;44.994;1.796;2023-05-16T11:31:58;17.10;58.80
45283;DHT22;31023;44.994;1.796;2023-05-16T11:34:24;17.90;59.30
45283;DHT22;31023;44.994;1.796;2023-05-16T11:36:50;18.90;57.90
45283;DHT22;31023;44.994;1.796;2023-05-16T11:39:16;18.80;54.10
45283;DHT22;31023;44.994;1.796;2023-05-16T11:41:43;18.70;54.70
45283;DHT22;31023;44.994;1.796;2023-05-16T11:44:12;19.00;55.90
45283;DHT22;31023;44.994;1.796;2023-05-16T11:46:39;18.50;54.20
45283;DHT22;31023;44.994;1.796;2023-05-16T11:49:10;18.20;58.20
45283;DHT22;31023;44.994;1.796;2023-05-16T11:51:40;17.80;55.70
45283;DHT22;31023;44.994;1.796;2023-05-16T11:54:08;17.70;55.80
45283;DHT22;31023;44.994;1.796;2023-05-16T11:56:35;17.30;57.00
45283;DHT22;31023;44.994;1.796;2023-05-16T11:59:01;16.80;57.60
45283;DHT22;31023;44.994;1.796;2023-05-16T12:01:45;16.50;57.60
45283;DHT22;31023;44.994;1.796;2023-05-16T12:04:15;16.50;59.20
45283;DHT22;31023;44.994;1.796;2023-05-16T12:06:42;17.00;58.60
45283;DHT22;31023;44.994;1.796;2023-05-16T12:09:13;16.70;57.60
45283;DHT22;31023;44.994;1.796;2023-05-16T12:11:43;16.80;56.80
45283;DHT22;31023;44.994;1.796;2023-05-16T12:14:11;16.90;56.40
45283;DHT22;31023;44.994;1.796;2023-05-16T12:16:38;17.40;55.30
45283;DHT22;31023;44.994;1.796;2023-05-16T12:19:07;17.30;57.60
45283;DHT22;31023;44.994;1.796;2023-05-16T12:21:33;16.50;57.10
45283;DHT22;31023;44.994;1.796;2023-05-16T12:23:59;16.30;57.50
45283;DHT22;31023;44.994;1.796;2023-05-16T12:26:27;15.60;59.50
45283;DHT22;31023;44.994;1.796;2023-05-16T12:29:04;15.60;59.30
45283;DHT22;31023;44.994;1.796;2023-05-16T12:31:31;15.80;58.40
45283;DHT22;31023;44.994;1.796;2023-05-16T12:34:00;16.10;58.60
45283;DHT22;31023;44.994;1.796;2023-05-16T12:36:30;15.60;59.80
45283;DHT22;31023;44.994;1.796;2023-05-16T12:38:59;16.20;58.00
45283;DHT22;31023;44.994;1.796;2023-05-16T12:41:26;16.80;58.10
45283;DHT22;31023;44.994;1.796;2023-05-16T12:46:42;17.50;56.90
45283;DHT22;31023;44.994;1.796;2023-05-16T12:49:07;17.30;56.40
45283;DHT22;31023;44.994;1.796;2023-05-16T12:51:33;17.60;55.10
45283;DHT22;31023;44.994;1.796;2023-05-16T12:54:10;16.60;56.50
45283;DHT22;31023;44.994;1.796;2023-05-16T12:56:37;17.00;56.80
45283;DHT22;31023;44.994;1.796;2023-05-16T12:59:03;17.20;57.00
45283;DHT22;31023;44.994;1.796;2023-05-16T13:01:29;17.10;55.80
45283;DHT22;31023;44.994;1.796;2023-05-16T13:03:54;17.10;57.50
45283;DHT22;31023;44.994;1.796;2023-05-16T13:06:20;17.00;56.60
45283;DHT22;31023;44.994;1.796;2023-05-16T13:08:46;16.90;56.40
45283;DHT22;31023;44.994;1.796;2023-05-16T13:11:11;16.60;59.40
45283;DHT22;31023;44.994;1.796;2023-05-16T13:13:37;16.70;57.80
45283;DHT22;31023;44.994;1.796;2023-05-16T13:16:03;16.10;58.00
45283;DHT22;31023;44.994;1.796;2023-05-16T13:18:28;15.70;58.60
45283;DHT22;31023;44.994;1.796;2023-05-16T13:20:54;16.40;57.60
45283;DHT22;31023;44.994;1.796;2023-05-16T13:23:20;16.20;59.40
45283;DHT22;31023;44.994;1.796;2023-05-16T13:25:46;16.50;56.30
45283;DHT22;31023;44.994;1.796;2023-05-16T13:28:11;16.40;59.70
45283;DHT22;31023;44.994;1.796;2023-05-16T13:30:37;16.30;56.70
45283;DHT22;31023;44.994;1.796;2023-05-16T13:33:03;16.30;59.20
45283;DHT22;31023;44.994;1.796;2023-05-16T13:35:29;16.30;58.20
45283;DHT22;31023;44.994;1.796;2023-05-16T13:37:54;15.60;58.30
45283;DHT22;31023;44.994;1.796;2023-05-16T13:40:20;15.70;57.60
45283;DHT22;31023;44.994;1.796;2023-05-16T13:42:46;15.80;58.20
45283;DHT22;31023;44.994;1.796;2023-05-16T13:45:11;15.50;57.80
45283;DHT22;31023;44.994;1.796;2023-05-16T13:47:37;15.30;58.40
45283;DHT22;31023;44.994;1.796;2023-05-16T13:50:04;14.80;59.40
45283;DHT22;31023;44.994;1.796;2023-05-16T13:52:33;14.90;58.70
45283;DHT22;31023;44.994;1.796;2023-05-16T13:54:59;14.70;59.70
45283;DHT22;31023;44.994;1.796;2023-05-16T13:57:25;15.10;61.20
45283;DHT22;31023;44.994;1.796;2023-05-16T13:59:52;16.10;57.90
45283;DHT22;31023;44.994;1.796;2023-05-16T14:02:18;15.80;59.20
45283;DHT22;31023;44.994;1.796;2023-05-16T14:04:44;15.90;58.50
45283;DHT22;31023;44.994;1.796;2023-05-16T14:07:09;15.80;58.00
45283;DHT22;31023;44.994;1.796;2023-05-16T14:09:35;16.50;56.20
45283;DHT22;31023;44.994;1.796;2023-05-16T14:12:07;16.80;55.00
45283;DHT22;31023;44.994;1.796;2023-05-16T14:14:33;16.40;57.50
45283;DHT22;31023;44.994;1.796;2023-05-16T14:16:59;16.50;57.00
45283;DHT22;31023;44.994;1.796;2023-05-16T14:19:25;15.40;58.70
45283;DHT22;31023;44.994;1.796;2023-05-16T14:21:51;15.30;59.90
45283;DHT22;31023;44.994;1.796;2023-05-16T14:24:17;15.30;58.70
45283;DHT22;31023;44.994;1.796;2023-05-16T14:26:43;15.20;59.20
45283;DHT22;31023;44.994;1.796;2023-05-16T14:29:09;15.20;57.60
45283;DHT22;31023;44.994;1.796;2023-05-16T14:31:35;15.00;57.10
45283;DHT22;31023;44.994;1.796;2023-05-16T14:34:01;15.10;58.50
45283;DHT22;31023;44.994;1.796;2023-05-16T14:36:27;15.40;58.10
45283;DHT22;31023;44.994;1.796;2023-05-16T14:38:52;15.40;59.00
45283;DHT22;31023;44.994;1.796;2023-05-16T14:41:18;15.30;57.80
45283;DHT22;31023;44.994;1.796;2023-05-16T14:43:44;15.20;58.20
45283;DHT22;31023;44.994;1.796;2023-05-16T14:46:10;15.20;60.60
45283;DHT22;31023;44.994;1.796;2023-05-16T14:48:36;14.70;57.40
45283;DHT22;31023;44.994;1.796;2023-05-16T14:51:02;14.80;57.50
45283;DHT22;31023;44.994;1.796;2023-05-16T14:53:29;15.00;57.80
45283;DHT22;31023;44.994;1.796;2023-05-16T14:55:55;15.50;58.20
45283;DHT22;31023;44.994;1.796;2023-05-16T14:58:20;15.20;57.50
45283;DHT22;31023;44.994;1.796;2023-05-16T15:00:46;15.00;57.00
45283;DHT22;31023;44.994;1.796;2023-05-16T15:03:12;15.30;58.90
45283;DHT22;31023;44.994;1.796;2023-05-16T15:05:37;14.80;58.40
45283;DHT22;31023;44.994;1.796;2023-05-16T15:08:03;14.30;59.10
45283;DHT22;31023;44.994;1.796;2023-05-16T15:10:29;14.90;59.20
45283;DHT22;31023;44.994;1.796;2023-05-16T15:12:55;15.00;57.50
45283;DHT22;31023;44.994;1.796;2023-05-16T15:15:20;15.50;57.10
45283;DHT22;31023;44.994;1.796;2023-05-16T15:17:46;15.40;57.80
45283;DHT22;31023;44.994;1.796;2023-05-16T15:20:12;15.80;56.80
45283;DHT22;31023;44.994;1.796;2023-05-16T15:22:38;15.80;55.40
45283;DHT22;31023;44.994;1.796;2023-05-16T15:25:08;15.90;54.50
45283;DHT22;31023;44.994;1.796;2023-05-16T15:27:34;15.90;54.00
45283;DHT22;31023;44.994;1.796;2023-05-16T15:30:00;15.70;53.80
45283;DHT22;31023;44.994;1.796;2023-05-16T15:32:25;15.90;55.50
45283;DHT22;31023;44.994;1.796;2023-05-16T15:34:51;15.90;54.10
45283;DHT22;31023;44.994;1.796;2023-05-16T15:37:17;15.40;57.50
45283;DHT22;31023;44.994;1.796;2023-05-16T15:39:43;15.20;55.60
45283;DHT22;31023;44.994;1.796;2023-05-16T15:42:09;15.00;56.80
45283;DHT22;31023;44.994;1.796;2023-05-16T15:44:35;15.10;56.60
45283;DHT22;31023;44.994;1.796;2023-05-16T15:47:01;15.10;55.80
45283;DHT22;31023;44.994;1.796;2023-05-16T15:49:26;15.40;55.20
45283;DHT22;31023;44.994;1.796;2023-05-16T15:51:53;15.20;56.80
45283;DHT22;31023;44.994;1.796;2023-05-16T15:54:19;14.70;56.10